sensor_id;sensor_type;location;lat;lon;timestamp;temperature;humidity
40153;DHT22;26371;56.992;23.912;2023-07-08T00:14:06;15.00;99.90
40153;DHT22;26371;56.992;23.912;2023-07-08T00:16:34;15.10;99.90
40153;DHT22;26371;56.992;23.912;2023-07-08T00:19:06;15.10;99.90
40153;DHT22;26371;56.992;23.912;2023-07-08T00:21:35;15.00;99.90
40153;DHT22;26371;56.992;23.912;2023-07-08T00:24:04;15.10;99.90
40153;DHT22;26371;56.992;23.912;2023-07-08T00:26:33;15.00;99.90
40153;DHT22;26371;56.992;23.912;2023-07-08T00:29:16;15.00;99.90
40153;DHT22;26371;56.992;23.912;2023-07-08T00:31:45;15.10;99.90
40153;DHT22;26371;56.992;23.912;2023-07-08T00:34:16;15.10;99.90
40153;DHT22;26371;56.992;23.912;2023-07-08T00:36:44;15.10;99.90
40153;DHT22;26371;56.992;23.912;2023-07-08T00:39:13;15.10;99.90
40153;DHT22;26371;56.992;23.912;2023-07-08T00:41:42;15.10;99.90
40153;DHT22;26371;56.992;23.912;2023-07-08T00:44:11;15.10;99.90
40153;DHT22;26371;56.992;23.912;2023-07-08T00:46:49;15.10;99.90
40153;DHT22;26371;56.992;23.912;2023-07-08T00:49:26;15.10;99.90
40153;DHT22;26371;56.992;23.912;2023-07-08T00:54:40;15.10;99.90
40153;DHT22;26371;56.992;23.912;2023-07-08T00:57:09;15.10;99.90
40153;DHT22;26371;56.992;23.912;2023-07-08T00:59:39;15.00;99.90
40153;DHT22;26371;56.992;23.912;2023-07-08T01:02:10;15.10;99.90
40153;DHT22;26371;56.992;23.912;2023-07-08T01:04:39;15.00;99.90
40153;DHT22;26371;56.992;23.912;2023-07-08T01:07:11;15.10;99.90
40153;DHT22;26371;56.992;23.912;2023-07-08T01:09:40;15.10;99.90
40153;DHT22;26371;56.992;23.912;2023-07-08T01:12:11;15.10;99.90
40153;DHT22;26371;56.992;23.912;2023-07-08T01:14:40;15.10;99.90
40153;DHT22;26371;56.992;23.912;2023-07-08T01:17:11;15.10;99.90
40153;DHT22;26371;56.992;23.912;2023-07-08T01:19:41;15.00;99.90
40153;DHT22;26371;56.992;23.912;2023-07-08T01:22:12;15.00;99.90
40153;DHT22;26371;56.992;23.912;2023-07-08T01:24:41;15.00;99.90
40153;DHT22;26371;56.992;23.912;2023-07-08T01:27:11;15.00;99.90
40153;DHT22;26371;56.992;23.912;2023-07-08T01:29:41;15.00;99.90
40153;DHT22;26371;56.992;23.912;2023-07-08T01:32:12;15.00;99.90
40153;DHT22;26371;56.992;23.912;2023-07-08T01:34:47;15.00;99.90
40153;DHT22;26371;56.992;23.912;2023-07-08T01:37:31;15.00;99.90
40153;DHT22;26371;56.992;23.912;2023-07-08T01:42:56;14.80;99.90
40153;DHT22;26371;56.992;23.912;2023-07-08T01:45:26;14.90;99.90
40153;DHT22;26371;56.992;23.912;2023-07-08T01:47:56;14.90;99.90
40153;DHT22;26371;56.992;23.912;2023-07-08T01:50:26;14.90;99.90
40153;DHT22;26371;56.992;23.912;2023-07-08T01:52:58;14.90;99.90
40153;DHT22;26371;56.992;23.912;2023-07-08T01:55:27;14.90;99.90
40153;DHT22;26371;56.992;23.912;2023-07-08T01:57:57;14.90;99.90
40153;DHT22;26371;56.992;23.912;2023-07-08T02:00:26;14.90;99.90
40153;DHT22;26371;56.992;23.912;2023-07-08T02:02:54;14.90;99.90
40153;DHT22;26371;56.992;23.912;2023-07-08T02:05:23;14.90;99.90
40153;DHT22;26371;56.992;23.912;2023-07-08T02:07:51;14.80;99.90
40153;DHT22;26371;56.992;23.912;2023-07-08T02:10:21;14.80;99.90
40153;DHT22;26371;56.992;23.912;2023-07-08T02:12:52;14.80;99.90
40153;DHT22;26371;56.992;23.912;2023-07-08T02:15:21;14.90;99.90
40153;DHT22;26371;56.992;23.912;2023-07-08T02:17:49;14.90;99.90
40153;DHT22;26371;56.992;23.912;2023-07-08T02:20:23;14.90;99.90
40153;DHT22;26371;56.992;23.912;2023-07-08T02:23:02;14.90;99.90
40153;DHT22;26371;56.992;23.912;2023-07-08T02:25:32;14.90;99.90
40153;DHT22;26371;56.992;23.912;2023-07-08T02:28:00;15.00;99.90
40153;DHT22;26371;56.992;23.912;2023-07-08T02:30:29;15.00;99.90
40153;DHT22;26371;56.992;23.912;2023-07-08T02:32:58;14.90;99.90
40153;DHT22;26371;56.992;23.912;2023-07-08T02:35:27;14.90;99.90
40153;DHT22;26371;56.992;23.912;2023-07-08T02:37:56;14.90;99.90
40153;DHT22;26371;56.992;23.912;2023-07-08T02:40:25;14.90;99.90
40153;DHT22;26371;56.992;23.912;2023-07-08T02:42:55;14.90;99.90
40153;DHT22;26371;56.992;23.912;2023-07-08T02:45:23;14.90;99.90
40153;DHT22;26371;56.992;23.912;2023-07-08T02:47:52;14.80;99.90
40153;DHT22;26371;56.992;23.912;2023-07-08T02:50:21;14.80;99.90
40153;DHT22;26371;56.992;23.912;2023-07-08T02:52:49;14.70;99.90
40153;DHT22;26371;56.992;23.912;2023-07-08T02:55:17;14.70;99.90
40153;DHT22;26371;56.992;23.912;2023-07-08T02:57:46;14.70;99.90
40153;DHT22;26371;56.992;23.912;2023-07-08T03:00:16;14.60;99.90
40153;DHT22;26371;56.992;23.912;2023-07-08T03:02:44;14.70;99.90
40153;DHT22;26371;56.992;23.912;2023-07-08T03:05:13;14.60;99.90
40153;DHT22;26371;56.992;23.912;2023-07-08T03:07:41;14.70;99.90
40153;DHT22;26371;56.992;23.912;2023-07-08T03:10:10;14.70;99.90
40153;DHT22;26371;56.992;23.912;2023-07-08T03:12:38;14.80;99.90
40153;DHT22;26371;56.992;23.912;2023-07-08T03:15:07;14.80;99.90
40153;DHT22;26371;56.992;23.912;2023-07-08T03:17:37;14.80;99.90
40153;DHT22;26371;56.992;23.912;2023-07-08T03:20:06;14.80;99.90
40153;DHT22;26371;56.992;23.912;2023-07-08T03:22:35;14.80;99.90
40153;DHT22;26371;56.992;23.912;2023-07-08T03:25:04;14.80;99.90
40153;DHT22;26371;56.992;23.912;2023-07-08T03:27:32;14.80;99.90
40153;DHT22;26371;56.992;23.912;2023-07-08T03:30:00;14.90;99.90
40153;DHT22;26371;56.992;23.912;2023-07-08T03:32:33;14.80;99.90
40153;DHT22;26371;56.992;23.912;2023-07-08T03:35:03;14.90;99.90
40153;DHT22;26371;56.992;23.912;2023-07-08T03:37:32;14.90;99.90
40153;DHT22;26371;56.992;23.912;2023-07-08T03:40:01;14.90;99.90
40153;DHT22;26371;56.992;23.912;2023-07-08T03:42:30;14.90;99.90
40153;DHT22;26371;56.992;23.912;2023-07-08T03:44:59;14.90;99.90
40153;DHT22;26371;56.992;23.912;2023-07-08T03:47:27;14.90;99.90
40153;DHT22;26371;56.992;23.912;2023-07-08T03:49:56;14.80;99.90
40153;DHT22;26371;56.992;23.912;2023-07-08T03:52:25;14.90;99.90
40153;DHT22;26371;56.992;23.912;2023-07-08T03:54:54;14.90;99.90
40153;DHT22;26371;56.992;23.912;2023-07-08T03:57:23;14.90;99.90
40153;DHT22;26371;56.992;23.912;2023-07-08T03:59:52;15.00;99.90
40153;DHT22;26371;56.992;23.912;2023-07-08T04:02:21;15.10;99.90
40153;DHT22;26371;56.992;23.912;2023-07-08T04:04:49;15.10;99.90
40153;DHT22;26371;56.992;23.912;2023-07-08T04:07:17;15.20;99.90
40153;DHT22;26371;56.992;23.912;2023-07-08T04:09:47;15.20;99.90
40153;DHT22;26371;56.992;23.912;2023-07-08T04:12:17;15.30;99.90
40153;DHT22;26371;56.992;23.912;2023-07-08T04:14:46;15.30;99.90
40153;DHT22;26371;56.992;23.912;2023-07-08T04:17:14;15.40;99.90
40153;DHT22;26371;56.992;23.912;2023-07-08T04:19:43;15.30;99.90
40153;DHT22;26371;56.992;23.912;2023-07-08T04:22:12;15.40;99.90
40153;DHT22;26371;56.992;23.912;2023-07-08T04:24:40;15.30;99.90
40153;DHT22;26371;56.992;23.912;2023-07-08T04:27:11;15.40;99.90
40153;DHT22;26371;56.992;23.912;2023-07-08T04:29:40;15.50;99.90
40153;DHT22;26371;56.992;23.912;2023-07-08T04:32:09;15.50;99.90
40153;DHT22;26371;56.992;23.912;2023-07-08T04:34:37;15.60;99.90
40153;DHT22;26371;56.992;23.912;2023-07-08T04:37:06;15.70;99.90
40153;DHT22;26371;56.992;23.912;2023-07-08T04:39:36;15.80;99.90
40153;DHT22;26371;56.992;23.912;2023-07-08T04:42:08;16.00;99.90
40153;DHT22;26371;56.992;23.912;2023-07-08T04:44:37;16.20;99.90
40153;DHT22;26371;56.992;23.912;2023-07-08T04:47:06;16.40;99.90
40153;DHT22;26371;56.992;23.912;2023-07-08T04:49:35;16.60;99.90
40153;DHT22;26371;56.992;23.912;2023-07-08T04:52:04;16.70;99.90
40153;DHT22;26371;56.992;23.912;2023-07-08T04:54:32;16.80;99.90
40153;DHT22;26371;56.992;23.912;2023-07-08T04:57:01;16.90;99.90
40153;DHT22;26371;56.992;23.912;2023-07-08T04:59:29;16.90;99.90
40153;DHT22;26371;56.992;23.912;2023-07-08T05:02:03;16.90;99.90
40153;DHT22;26371;56.992;23.912;2023-07-08T05:04:34;16.90;99.90
40153;DHT22;26371;56.992;23.912;2023-07-08T05:07:03;16.90;99.90
40153;DHT22;26371;56.992;23.912;2023-07-08T05:09:31;16.90;99.90
40153;DHT22;26371;56.992;23.912;2023-07-08T05:12:00;16.80;99.90
40153;DHT22;26371;56.992;23.912;2023-07-08T05:14:28;16.80;99.90
40153;DHT22;26371;56.992;23.912;2023-07-08T05:16:56;16.80;99.90
40153;DHT22;26371;56.992;23.912;2023-07-08T05:19:27;16.80;99.90
40153;DHT22;26371;56.992;23.912;2023-07-08T05:21:58;16.90;99.90
40153;DHT22;26371;56.992;23.912;2023-07-08T05:24:26;16.90;99.90
40153;DHT22;26371;56.992;23.912;2023-07-08T05:26:55;17.00;99.90
40153;DHT22;26371;56.992;23.912;2023-07-08T05:29:26;17.10;99.90
40153;DHT22;26371;56.992;23.912;2023-07-08T05:31:54;17.20;99.90
40153;DHT22;26371;56.992;23.912;2023-07-08T05:34:24;17.30;99.90
40153;DHT22;26371;56.992;23.912;2023-07-08T05:36:54;17.30;99.90
40153;DHT22;26371;56.992;23.912;2023-07-08T05:39:23;17.50;99.90
40153;DHT22;26371;56.992;23.912;2023-07-08T05:41:51;17.50;99.90
40153;DHT22;26371;56.992;23.912;2023-07-08T05:44:20;17.50;99.90
40153;DHT22;26371;56.992;23.912;2023-07-08T05:46:48;17.50;99.90
40153;DHT22;26371;56.992;23.912;2023-07-08T05:49:19;17.50;99.90
40153;DHT22;26371;56.992;23.912;2023-07-08T05:51:48;17.50;99.90
40153;DHT22;26371;56.992;23.912;2023-07-08T05:54:17;17.60;99.90
40153;DHT22;26371;56.992;23.912;2023-07-08T05:56:48;17.80;99.90
40153;DHT22;26371;56.992;23.912;2023-07-08T05:59:16;18.00;99.90
40153;DHT22;26371;56.992;23.912;2023-07-08T06:01:44;18.10;99.90
40153;DHT22;26371;56.992;23.912;2023-07-08T06:04:13;18.20;99.90
40153;DHT22;26371;56.992;23.912;2023-07-08T06:06:41;18.20;99.90
40153;DHT22;26371;56.992;23.912;2023-07-08T06:09:10;18.20;99.90
40153;DHT22;26371;56.992;23.912;2023-07-08T06:11:43;18.10;99.90
40153;DHT22;26371;56.992;23.912;2023-07-08T06:14:12;18.00;99.90
40153;DHT22;26371;56.992;23.912;2023-07-08T06:16:57;18.10;99.90
40153;DHT22;26371;56.992;23.912;2023-07-08T06:19:26;18.20;99.90
40153;DHT22;26371;56.992;23.912;2023-07-08T06:21:57;18.30;99.90
40153;DHT22;26371;56.992;23.912;2023-07-08T06:24:46;18.50;99.90
40153;DHT22;26371;56.992;23.912;2023-07-08T06:47:39;18.90;99.90
40153;DHT22;26371;56.992;23.912;2023-07-08T06:50:08;18.80;99.90
40153;DHT22;26371;56.992;23.912;2023-07-08T06:52:37;18.80;99.90
40153;DHT22;26371;56.992;23.912;2023-07-08T06:55:06;18.80;99.90
40153;DHT22;26371;56.992;23.912;2023-07-08T06:57:35;18.90;99.90
40153;DHT22;26371;56.992;23.912;2023-07-08T07:00:09;19.00;99.90
40153;DHT22;26371;56.992;23.912;2023-07-08T07:02:41;19.10;99.90
40153;DHT22;26371;56.992;23.912;2023-07-08T07:05:10;19.10;99.90
40153;DHT22;26371;56.992;23.912;2023-07-08T07:07:42;19.10;99.90
40153;DHT22;26371;56.992;23.912;2023-07-08T07:10:13;19.10;99.90
40153;DHT22;26371;56.992;23.912;2023-07-08T07:15:16;19.20;99.90
40153;DHT22;26371;56.992;23.912;2023-07-08T07:17:49;19.20;99.90
40153;DHT22;26371;56.992;23.912;2023-07-08T07:20:18;19.30;99.90
40153;DHT22;26371;56.992;23.912;2023-07-08T07:25:48;19.40;99.90
40153;DHT22;26371;56.992;23.912;2023-07-08T07:28:17;19.40;99.90
40153;DHT22;26371;56.992;23.912;2023-07-08T07:30:54;19.40;99.90
40153;DHT22;26371;56.992;23.912;2023-07-08T07:33:25;19.50;99.90
40153;DHT22;26371;56.992;23.912;2023-07-08T07:35:54;19.40;99.90
40153;DHT22;26371;56.992;23.912;2023-07-08T07:38:24;19.50;99.90
40153;DHT22;26371;56.992;23.912;2023-07-08T07:41:00;19.50;99.90
40153;DHT22;26371;56.992;23.912;2023-07-08T07:43:33;19.40;99.90
40153;DHT22;26371;56.992;23.912;2023-07-08T07:46:02;19.50;99.90
40153;DHT22;26371;56.992;23.912;2023-07-08T07:48:34;19.50;99.90
40153;DHT22;26371;56.992;23.912;2023-07-08T07:51:03;19.50;99.90
40153;DHT22;26371;56.992;23.912;2023-07-08T07:53:32;19.50;99.90
40153;DHT22;26371;56.992;23.912;2023-07-08T07:56:01;19.50;99.90
40153;DHT22;26371;56.992;23.912;2023-07-08T07:58:31;19.60;99.90
40153;DHT22;26371;56.992;23.912;2023-07-08T08:00:59;19.60;99.90
40153;DHT22;26371;56.992;23.912;2023-07-08T08:03:28;19.70;99.90
40153;DHT22;26371;56.992;23.912;2023-07-08T08:05:58;19.60;99.90
40153;DHT22;26371;56.992;23.912;2023-07-08T08:08:27;19.60;99.90
40153;DHT22;26371;56.992;23.912;2023-07-08T08:10:56;19.50;99.90
40153;DHT22;26371;56.992;23.912;2023-07-08T08:13:24;19.40;99.90
40153;DHT22;26371;56.992;23.912;2023-07-08T08:15:55;19.50;99.90
40153;DHT22;26371;56.992;23.912;2023-07-08T08:33:24;19.80;99.90
40153;DHT22;26371;56.992;23.912;2023-07-08T08:35:53;19.90;99.90
40153;DHT22;26371;56.992;23.912;2023-07-08T08:38:21;19.90;99.90
40153;DHT22;26371;56.992;23.912;2023-07-08T08:40:49;20.00;99.90
40153;DHT22;26371;56.992;23.912;2023-07-08T08:43:19;20.00;99.90
40153;DHT22;26371;56.992;23.912;2023-07-08T08:45:50;19.90;99.90
40153;DHT22;26371;56.992;23.912;2023-07-08T08:48:20;19.80;99.90
40153;DHT22;26371;56.992;23.912;2023-07-08T08:51:00;19.90;99.90
40153;DHT22;26371;56.992;23.912;2023-07-08T08:53:43;19.90;99.90
40153;DHT22;26371;56.992;23.912;2023-07-08T08:56:14;20.00;99.90
40153;DHT22;26371;56.992;23.912;2023-07-08T08:58:48;20.00;99.90
40153;DHT22;26371;56.992;23.912;2023-07-08T09:01:18;20.10;99.90
40153;DHT22;26371;56.992;23.912;2023-07-08T09:03:51;19.80;99.90
40153;DHT22;26371;56.992;23.912;2023-07-08T09:06:25;19.70;99.90
40153;DHT22;26371;56.992;23.912;2023-07-08T09:08:54;19.90;99.90
40153;DHT22;26371;56.992;23.912;2023-07-08T09:11:38;19.90;99.90
40153;DHT22;26371;56.992;23.912;2023-07-08T09:14:14;19.80;99.90
40153;DHT22;26371;56.992;23.912;2023-07-08T09:16:45;19.70;99.90
40153;DHT22;26371;56.992;23.912;2023-07-08T09:19:18;19.50;99.90
40153;DHT22;26371;56.992;23.912;2023-07-08T09:21:53;19.40;99.90
40153;DHT22;26371;56.992;23.912;2023-07-08T09:24:33;19.50;99.90
40153;DHT22;26371;56.992;23.912;2023-07-08T09:27:04;19.70;99.90
40153;DHT22;26371;56.992;23.912;2023-07-08T09:29:32;19.80;99.90
40153;DHT22;26371;56.992;23.912;2023-07-08T09:32:10;20.00;99.90
40153;DHT22;26371;56.992;23.912;2023-07-08T09:42:12;20.50;99.90
40153;DHT22;26371;56.992;23.912;2023-07-08T09:44:44;20.40;99.90
40153;DHT22;26371;56.992;23.912;2023-07-08T09:47:20;20.40;99.90
40153;DHT22;26371;56.992;23.912;2023-07-08T09:49:50;20.40;99.90
40153;DHT22;26371;56.992;23.912;2023-07-08T09:52:21;20.30;99.90
40153;DHT22;26371;56.992;23.912;2023-07-08T09:54:49;20.40;99.90
40153;DHT22;26371;56.992;23.912;2023-07-08T09:57:21;20.40;99.90
40153;DHT22;26371;56.992;23.912;2023-07-08T10:34:49;20.60;99.90
40153;DHT22;26371;56.992;23.912;2023-07-08T10:37:22;20.60;99.90
40153;DHT22;26371;56.992;23.912;2023-07-08T10:40:02;20.50;99.90
40153;DHT22;26371;56.992;23.912;2023-07-08T10:42:48;20.50;99.90
40153;DHT22;26371;56.992;23.912;2023-07-08T10:45:23;20.50;99.90
40153;DHT22;26371;56.992;23.912;2023-07-08T10:48:02;20.50;99.90
40153;DHT22;26371;56.992;23.912;2023-07-08T10:50:43;20.50;99.90
40153;DHT22;26371;56.992;23.912;2023-07-08T10:53:31;20.50;99.90
40153;DHT22;26371;56.992;23.912;2023-07-08T10:56:05;20.50;99.90
40153;DHT22;26371;56.992;23.912;2023-07-08T10:58:39;20.50;99.90
40153;DHT22;26371;56.992;23.912;2023-07-08T11:01:14;20.50;99.90
40153;DHT22;26371;56.992;23.912;2023-07-08T11:03:49;20.40;99.90
40153;DHT22;26371;56.992;23.912;2023-07-08T11:06:24;20.30;99.90
40153;DHT22;26371;56.992;23.912;2023-07-08T11:08:55;20.30;99.90
40153;DHT22;26371;56.992;23.912;2023-07-08T11:11:30;20.40;99.90
40153;DHT22;26371;56.992;23.912;2023-07-08T11:14:03;20.40;99.90
40153;DHT22;26371;56.992;23.912;2023-07-08T11:16:33;20.50;99.90
40153;DHT22;26371;56.992;23.912;2023-07-08T11:19:04;20.70;99.90
40153;DHT22;26371;56.992;23.912;2023-07-08T11:24:07;20.80;99.90
40153;DHT22;26371;56.992;23.912;2023-07-08T11:26:41;21.20;99.90
40153;DHT22;26371;56.992;23.912;2023-07-08T11:29:13;21.10;99.90
40153;DHT22;26371;56.992;23.912;2023-07-08T11:31:44;21.00;99.90
40153;DHT22;26371;56.992;23.912;2023-07-08T11:34:12;21.10;99.90
40153;DHT22;26371;56.992;23.912;2023-07-08T11:36:43;21.00;99.90
40153;DHT22;26371;56.992;23.912;2023-07-08T11:42:06;21.10;99.90
40153;DHT22;26371;56.992;23.912;2023-07-08T11:44:41;21.10;99.90
40153;DHT22;26371;56.992;23.912;2023-07-08T11:47:12;21.10;99.90
40153;DHT22;26371;56.992;23.912;2023-07-08T11:49:43;21.10;99.90
40153;DHT22;26371;56.992;23.912;2023-07-08T11:52:14;21.10;99.90
40153;DHT22;26371;56.992;23.912;2023-07-08T11:54:45;21.10;99.90
40153;DHT22;26371;56.992;23.912;2023-07-08T11:57:18;21.10;99.90
40153;DHT22;26371;56.992;23.912;2023-07-08T11:59:46;21.00;99.90
40153;DHT22;26371;56.992;23.912;2023-07-08T12:02:16;21.00;99.90
40153;DHT22;26371;56.992;23.912;2023-07-08T12:04:53;21.00;99.90
40153;DHT22;26371;56.992;23.912;2023-07-08T12:07:30;20.90;99.90
40153;DHT22;26371;56.992;23.912;2023-07-08T12:10:04;20.80;99.90
40153;DHT22;26371;56.992;23.912;2023-07-08T12:12:36;20.90;99.90
40153;DHT22;26371;56.992;23.912;2023-07-08T12:15:08;21.00;99.90
40153;DHT22;26371;56.992;23.912;2023-07-08T12:17:38;21.10;99.90
40153;DHT22;26371;56.992;23.912;2023-07-08T12:20:12;21.10;99.90
40153;DHT22;26371;56.992;23.912;2023-07-08T12:22:51;21.10;99.90
40153;DHT22;26371;56.992;23.912;2023-07-08T12:25:40;21.10;99.90
40153;DHT22;26371;56.992;23.912;2023-07-08T12:28:11;21.10;99.90
40153;DHT22;26371;56.992;23.912;2023-07-08T12:30:41;21.20;99.90
40153;DHT22;26371;56.992;23.912;2023-07-08T12:33:11;21.20;99.90
40153;DHT22;26371;56.992;23.912;2023-07-08T12:35:40;21.20;99.90
40153;DHT22;26371;56.992;23.912;2023-07-08T12:38:18;21.10;99.90
40153;DHT22;26371;56.992;23.912;2023-07-08T12:40:47;20.90;99.90
40153;DHT22;26371;56.992;23.912;2023-07-08T12:43:17;20.70;99.90
40153;DHT22;26371;56.992;23.912;2023-07-08T12:45:46;20.70;99.90
40153;DHT22;26371;56.992;23.912;2023-07-08T12:48:14;20.70;99.90
40153;DHT22;26371;56.992;23.912;2023-07-08T12:50:43;20.60;99.90
40153;DHT22;26371;56.992;23.912;2023-07-08T12:53:11;20.50;99.90
40153;DHT22;26371;56.992;23.912;2023-07-08T12:55:40;20.50;99.90
40153;DHT22;26371;56.992;23.912;2023-07-08T12:58:10;20.50;99.90
40153;DHT22;26371;56.992;23.912;2023-07-08T13:00:42;20.50;99.90
40153;DHT22;26371;56.992;23.912;2023-07-08T13:03:12;20.40;99.90
40153;DHT22;26371;56.992;23.912;2023-07-08T13:05:42;20.30;99.90
40153;DHT22;26371;56.992;23.912;2023-07-08T13:08:11;20.40;99.90
40153;DHT22;26371;56.992;23.912;2023-07-08T13:10:40;20.50;99.90
40153;DHT22;26371;56.992;23.912;2023-07-08T13:13:11;20.60;99.90
40153;DHT22;26371;56.992;23.912;2023-07-08T13:15:42;20.70;99.90
40153;DHT22;26371;56.992;23.912;2023-07-08T13:18:13;20.70;99.90
40153;DHT22;26371;56.992;23.912;2023-07-08T13:20:43;20.80;99.90
40153;DHT22;26371;56.992;23.912;2023-07-08T13:23:14;20.60;99.90
40153;DHT22;26371;56.992;23.912;2023-07-08T13:25:43;20.70;99.90
40153;DHT22;26371;56.992;23.912;2023-07-08T13:28:16;20.60;99.90
40153;DHT22;26371;56.992;23.912;2023-07-08T13:30:52;20.40;99.90
40153;DHT22;26371;56.992;23.912;2023-07-08T13:33:21;20.40;99.90
40153;DHT22;26371;56.992;23.912;2023-07-08T13:35:50;20.30;99.90
40153;DHT22;26371;56.992;23.912;2023-07-08T13:38:20;20.40;99.90
40153;DHT22;26371;56.992;23.912;2023-07-08T13:40:55;20.50;99.90
40153;DHT22;26371;56.992;23.912;2023-07-08T13:43:25;20.70;99.90
40153;DHT22;26371;56.992;23.912;2023-07-08T13:49:02;20.50;99.90
40153;DHT22;26371;56.992;23.912;2023-07-08T13:51:31;20.30;99.90
40153;DHT22;26371;56.992;23.912;2023-07-08T13:54:01;20.40;99.90
40153;DHT22;26371;56.992;23.912;2023-07-08T13:56:35;20.50;99.90
40153;DHT22;26371;56.992;23.912;2023-07-08T13:59:20;20.60;99.90
40153;DHT22;26371;56.992;23.912;2023-07-08T14:02:27;20.60;99.90
40153;DHT22;26371;56.992;23.912;2023-07-08T14:04:58;20.60;99.90
40153;DHT22;26371;56.992;23.912;2023-07-08T14:07:29;20.70;99.90
40153;DHT22;26371;56.992;23.912;2023-07-08T14:09:58;20.70;99.90
40153;DHT22;26371;56.992;23.912;2023-07-08T14:12:26;20.80;99.90
40153;DHT22;26371;56.992;23.912;2023-07-08T14:14:55;20.90;99.90
40153;DHT22;26371;56.992;23.912;2023-07-08T14:17:32;20.90;99.90
40153;DHT22;26371;56.992;23.912;2023-07-08T14:20:07;20.90;99.90
40153;DHT22;26371;56.992;23.912;2023-07-08T14:22:37;20.90;99.90
40153;DHT22;26371;56.992;23.912;2023-07-08T14:25:07;21.00;99.90
40153;DHT22;26371;56.992;23.912;2023-07-08T14:27:35;21.00;99.90
40153;DHT22;26371;56.992;23.912;2023-07-08T14:30:05;21.00;99.90
40153;DHT22;26371;56.992;23.912;2023-07-08T14:32:33;21.10;99.90
40153;DHT22;26371;56.992;23.912;2023-07-08T14:35:12;20.90;99.90
40153;DHT22;26371;56.992;23.912;2023-07-08T14:37:42;20.70;99.90
40153;DHT22;26371;56.992;23.912;2023-07-08T14:40:18;20.70;99.90
40153;DHT22;26371;56.992;23.912;2023-07-08T14:42:47;20.70;99.90
40153;DHT22;26371;56.992;23.912;2023-07-08T14:45:17;20.90;99.90
40153;DHT22;26371;56.992;23.912;2023-07-08T14:47:46;21.00;99.90
40153;DHT22;26371;56.992;23.912;2023-07-08T14:50:18;21.20;99.90
40153;DHT22;26371;56.992;23.912;2023-07-08T14:52:53;21.30;99.90
40153;DHT22;26371;56.992;23.912;2023-07-08T14:55:21;21.30;99.90
40153;DHT22;26371;56.992;23.912;2023-07-08T14:57:51;21.40;99.90
40153;DHT22;26371;56.992;23.912;2023-07-08T15:00:22;21.40;99.90
40153;DHT22;26371;56.992;23.912;2023-07-08T16:59:43;18.70;99.90
40153;DHT22;26371;56.992;23.912;2023-07-08T17:02:12;18.70;99.90
40153;DHT22;26371;56.992;23.912;2023-07-08T17:04:42;18.60;99.90
40153;DHT22;26371;56.992;23.912;2023-07-08T17:07:11;18.60;99.90
40153;DHT22;26371;56.992;23.912;2023-07-08T17:09:39;18.60;99.90
40153;DHT22;26371;56.992;23.912;2023-07-08T17:12:08;18.60;99.90
40153;DHT22;26371;56.992;23.912;2023-07-08T17:14:37;18.60;99.90
40153;DHT22;26371;56.992;23.912;2023-07-08T17:17:10;18.60;99.90
40153;DHT22;26371;56.992;23.912;2023-07-08T17:19:40;18.50;99.90
40153;DHT22;26371;56.992;23.912;2023-07-08T17:22:09;18.50;99.90
40153;DHT22;26371;56.992;23.912;2023-07-08T17:24:37;18.40;99.90
40153;DHT22;26371;56.992;23.912;2023-07-08T17:27:06;18.40;99.90
40153;DHT22;26371;56.992;23.912;2023-07-08T17:29:37;18.30;99.90
40153;DHT22;26371;56.992;23.912;2023-07-08T17:32:08;18.30;99.90
40153;DHT22;26371;56.992;23.912;2023-07-08T17:34:40;18.30;99.90
40153;DHT22;26371;56.992;23.912;2023-07-08T17:37:08;18.20;99.90
40153;DHT22;26371;56.992;23.912;2023-07-08T17:39:37;18.20;99.90
40153;DHT22;26371;56.992;23.912;2023-07-08T17:42:05;18.20;99.90
40153;DHT22;26371;56.992;23.912;2023-07-08T17:44:34;18.20;99.90
40153;DHT22;26371;56.992;23.912;2023-07-08T17:47:02;18.20;99.90
40153;DHT22;26371;56.992;23.912;2023-07-08T17:49:32;18.20;99.90
40153;DHT22;26371;56.992;23.912;2023-07-08T17:52:01;18.20;99.90
40153;DHT22;26371;56.992;23.912;2023-07-08T17:54:30;18.10;99.90
40153;DHT22;26371;56.992;23.912;2023-07-08T17:56:58;18.10;99.90
40153;DHT22;26371;56.992;23.912;2023-07-08T17:59:27;18.10;99.90
40153;DHT22;26371;56.992;23.912;2023-07-08T18:01:57;18.10;99.90
40153;DHT22;26371;56.992;23.912;2023-07-08T18:04:25;18.10;99.90
40153;DHT22;26371;56.992;23.912;2023-07-08T18:06:53;18.10;99.90
40153;DHT22;26371;56.992;23.912;2023-07-08T18:09:23;18.10;99.90
40153;DHT22;26371;56.992;23.912;2023-07-08T18:11:51;18.10;99.90
40153;DHT22;26371;56.992;23.912;2023-07-08T18:14:20;18.00;99.90
40153;DHT22;26371;56.992;23.912;2023-07-08T18:16:49;18.00;99.90
40153;DHT22;26371;56.992;23.912;2023-07-08T18:19:18;17.90;99.90
40153;DHT22;26371;56.992;23.912;2023-07-08T18:21:48;17.90;99.90
40153;DHT22;26371;56.992;23.912;2023-07-08T18:24:16;17.80;99.90
